createdAt,value
2022-09-26T00:00:28.997Z,100.00
2022-09-26T00:02:58.985Z,100.00
2022-09-26T00:05:29.489Z,100.00
2022-09-26T00:07:59.461Z,100.00
2022-09-26T00:10:29.563Z,100.00
2022-09-26T00:12:59.908Z,100.00
2022-09-26T00:15:32.515Z,100.00
2022-09-26T00:18:02.450Z,100.00
2022-09-26T00:20:32.557Z,100.00
2022-09-26T00:23:02.469Z,100.00
2022-09-26T00:25:32.447Z,100.00
2022-09-26T00:28:02.382Z,100.00
2022-09-26T00:30:34.928Z,100.00
2022-09-26T00:33:04.943Z,100.00
2022-09-26T00:35:35.195Z,100.00
2022-09-26T00:38:05.398Z,100.00
2022-09-26T00:40:36.276Z,100.00
2022-09-26T00:43:06.573Z,100.00
2022-09-26T00:45:39.218Z,100.00
2022-09-26T00:48:09.825Z,100.00
2022-09-26T00:50:44.711Z,100.00
2022-09-26T00:53:20.802Z,100.00
2022-09-26T00:55:57.079Z,100.00
2022-09-26T00:58:35.442Z,100.00
2022-09-26T01:01:10.090Z,100.00
2022-09-26T01:03:44.222Z,100.00
2022-09-26T01:06:15.545Z,100.00
2022-09-26T01:08:53.277Z,100.00
2022-09-26T01:11:23.699Z,100.00
2022-09-26T01:13:57.178Z,100.00
2022-09-26T01:16:31.268Z,100.00
2022-09-26T01:19:02.563Z,100.00
2022-09-26T01:22:19.073Z,100.00
2022-09-26T01:25:05.985Z,100.00
2022-09-26T01:28:09.123Z,100.00
2022-09-26T01:30:50.819Z,100.00
2022-09-26T01:33:57.567Z,100.00
2022-09-26T01:37:02.719Z,100.00
2022-09-26T01:39:52.889Z,100.00
2022-09-26T01:42:37.777Z,100.00
2022-09-26T01:45:17.478Z,100.00
2022-09-26T01:48:05.942Z,100.00
2022-09-26T01:50:46.004Z,100.00
2022-09-26T01:53:25.211Z,100.00
2022-09-26T01:56:07.896Z,100.00
2022-09-26T01:58:45.403Z,100.00
2022-09-26T02:01:20.602Z,100.00
2022-09-26T02:03:58.991Z,100.00
2022-09-26T02:06:37.853Z,100.00
2022-09-26T02:09:16.143Z,100.00
2022-09-26T02:11:53.674Z,100.00
2022-09-26T02:14:31.205Z,100.00
2022-09-26T02:17:08.517Z,100.00
2022-09-26T02:19:52.654Z,100.00
2022-09-26T02:22:22.789Z,100.00
2022-09-26T02:24:53.002Z,100.00
2022-09-26T02:27:24.458Z,100.00
2022-09-26T02:29:54.846Z,100.00
2022-09-26T02:32:32.924Z,100.00
2022-09-26T02:35:36.490Z,100.00
2022-09-26T02:38:07.927Z,100.00
2022-09-26T02:41:00.304Z,100.00
2022-09-26T02:43:59.519Z,100.00
2022-09-26T02:47:05.752Z,100.00
2022-09-26T02:50:04.776Z,100.00
2022-09-26T02:53:00.382Z,100.00
2022-09-26T02:55:48.766Z,100.00
2022-09-26T02:58:28.503Z,100.00
2022-09-26T03:01:11.051Z,100.00
2022-09-26T03:03:47.837Z,100.00
2022-09-26T03:06:25.795Z,100.00
2022-09-26T03:09:01.663Z,100.00
2022-09-26T03:11:34.950Z,100.00
2022-09-26T03:14:06.440Z,100.00
2022-09-26T03:16:44.073Z,100.00
2022-09-26T03:19:22.544Z,100.00
2022-09-26T03:21:52.685Z,100.00
2022-09-26T03:24:26.815Z,100.00
2022-09-26T03:26:59.860Z,100.00
2022-09-26T03:29:30.251Z,100.00
2022-09-26T03:32:01.171Z,100.00
2022-09-26T03:34:31.262Z,100.00
2022-09-26T03:37:01.487Z,100.00
2022-09-26T03:39:34.008Z,100.00
2022-09-26T03:42:09.585Z,100.00
2022-09-26T03:44:44.129Z,100.00
2022-09-26T03:47:19.935Z,100.00
2022-09-26T03:49:56.759Z,100.00
2022-09-26T03:52:27.620Z,100.00
2022-09-26T03:55:00.325Z,100.00
2022-09-26T03:57:30.463Z,100.00
2022-09-26T04:00:11.543Z,100.00
2022-09-26T04:02:48.765Z,100.00
2022-09-26T04:05:40.296Z,100.00
2022-09-26T04:08:10.463Z,100.00
2022-09-26T04:10:44.457Z,100.00
2022-09-26T04:13:33.715Z,100.00
2022-09-26T04:16:05.925Z,100.00
2022-09-26T04:18:37.549Z,100.00
2022-09-26T04:21:10.760Z,100.00
2022-09-26T04:23:43.190Z,100.00
2022-09-26T04:26:23.403Z,100.00
2022-09-26T04:28:55.709Z,100.00
2022-09-26T04:31:30.970Z,100.00
2022-09-26T04:34:12.121Z,100.00
2022-09-26T04:36:42.689Z,100.00
2022-09-26T04:39:14.438Z,100.00
2022-09-26T04:41:47.160Z,100.00
2022-09-26T04:44:17.737Z,100.00
2022-09-26T04:46:48.137Z,100.00
2022-09-26T04:49:18.835Z,100.00
2022-09-26T04:51:49.900Z,100.00
2022-09-26T04:54:20.541Z,100.00
2022-09-26T04:56:53.139Z,100.00
2022-09-26T04:59:23.285Z,100.00
2022-09-26T05:02:00.896Z,100.00
2022-09-26T05:04:38.124Z,100.00
2022-09-26T05:07:08.153Z,100.00
2022-09-26T05:09:38.187Z,100.00
2022-09-26T05:12:18.598Z,100.00
2022-09-26T05:14:56.687Z,100.00
2022-09-26T05:17:27.294Z,100.00
2022-09-26T05:20:01.098Z,100.00
2022-09-26T05:22:55.249Z,100.00
2022-09-26T05:25:37.680Z,100.00
2022-09-26T05:28:10.297Z,100.00
2022-09-26T05:30:41.063Z,100.00
2022-09-26T05:33:13.490Z,100.00
2022-09-26T05:35:43.563Z,100.00
2022-09-26T05:38:13.549Z,100.00
2022-09-26T05:40:57.643Z,100.00
2022-09-26T05:43:34.984Z,100.00
2022-09-26T05:46:11.288Z,100.00
2022-09-26T05:48:47.622Z,100.00
2022-09-26T05:51:24.517Z,100.00
2022-09-26T05:53:55.421Z,100.00
2022-09-26T05:56:28.447Z,100.00
2022-09-26T05:59:22.506Z,100.00
2022-09-26T06:02:11.296Z,100.00
2022-09-26T06:04:56.501Z,100.00
2022-09-26T06:07:42.557Z,100.00
2022-09-26T06:10:17.034Z,100.00
2022-09-26T06:12:56.425Z,100.00
2022-09-26T06:15:29.966Z,100.00
2022-09-26T06:18:04.460Z,100.00
2022-09-26T06:20:36.657Z,100.00
2022-09-26T06:23:06.633Z,100.00
2022-09-26T06:25:38.201Z,100.00
2022-09-26T06:28:09.417Z,100.00
2022-09-26T06:30:42.778Z,100.00
2022-09-26T06:33:15.384Z,100.00
2022-09-26T06:36:04.878Z,100.00
2022-09-26T06:38:38.356Z,100.00
2022-09-26T06:41:16.789Z,100.00
2022-09-26T06:43:47.778Z,100.00
2022-09-26T06:46:38.950Z,100.00
2022-09-26T06:49:22.387Z,100.00
2022-09-26T06:52:05.194Z,100.00
2022-09-26T06:54:35.170Z,100.00
2022-09-26T06:57:05.175Z,100.00
2022-09-26T06:59:37.332Z,100.00
2022-09-26T07:02:22.047Z,100.00
2022-09-26T07:05:17.025Z,100.00
2022-09-26T07:07:55.080Z,100.00
2022-09-26T07:10:32.140Z,100.00
2022-09-26T07:13:09.841Z,100.00
2022-09-26T07:15:40.490Z,100.00
2022-09-26T07:18:31.410Z,100.00
2022-09-26T07:21:16.402Z,100.00
2022-09-26T07:24:14.210Z,100.00
2022-09-26T07:26:45.530Z,100.00
2022-09-26T07:29:15.603Z,100.00
2022-09-26T07:31:46.690Z,100.00
2022-09-26T07:34:27.542Z,100.00
2022-09-26T07:36:57.519Z,100.00
2022-09-26T07:39:27.644Z,100.00
2022-09-26T07:41:58.117Z,100.00
2022-09-26T07:47:30.935Z,100.00
2022-09-26T07:50:16.711Z,100.00
2022-09-26T07:53:00.373Z,100.00
2022-09-26T07:55:31.755Z,100.00
2022-09-26T07:58:22.570Z,100.00
2022-09-26T08:01:20.359Z,100.00
2022-09-26T08:04:10.358Z,100.00
2022-09-26T08:06:44.179Z,98.99
2022-09-26T08:09:15.094Z,100.00
2022-09-26T08:12:04.210Z,100.00
2022-09-26T08:14:42.931Z,100.00
2022-09-26T08:17:20.158Z,100.00
2022-09-26T08:19:51.113Z,99.53
2022-09-26T08:22:23.694Z,100.00
2022-09-26T08:24:56.810Z,100.00
2022-09-26T08:27:48.535Z,100.00
2022-09-26T08:30:19.105Z,100.00
2022-09-26T08:32:59.284Z,100.00
2022-09-26T08:35:31.552Z,100.00
2022-09-26T08:38:23.236Z,100.00
2022-09-26T08:41:53.813Z,99.19
2022-09-26T08:45:26.982Z,99.33
2022-09-26T08:48:48.561Z,91.07
2022-09-26T08:51:32.705Z,88.37
2022-09-26T08:54:13.907Z,72.48
2022-09-26T08:56:51.354Z,64.96
2022-09-26T08:59:30.548Z,59.32
2022-09-26T09:02:12.825Z,54.58
2022-09-26T09:04:58.556Z,54.60
2022-09-26T09:07:30.033Z,54.29
2022-09-26T09:10:08.457Z,60.39
2022-09-26T09:13:13.587Z,55.86
2022-09-26T09:16:21.418Z,55.25
2022-09-26T09:19:25.110Z,56.79
2022-09-26T09:22:44.987Z,53.77
2022-09-26T09:25:31.626Z,47.28
2022-09-26T09:28:31.144Z,47.57
2022-09-26T09:31:06.552Z,51.74
2022-09-26T09:34:12.418Z,53.15
2022-09-26T09:37:08.626Z,63.65
2022-09-26T09:39:59.279Z,61.57
2022-09-26T09:42:52.214Z,70.72
2022-09-26T09:45:32.141Z,62.75
2022-09-26T09:48:02.220Z,69.32
2022-09-26T09:50:42.861Z,56.33
2022-09-26T09:53:32.873Z,58.07
2022-09-26T09:56:18.673Z,50.24
2022-09-26T09:59:21.481Z,44.52
2022-09-26T10:02:29.998Z,44.17
2022-09-26T10:05:19.077Z,41.75
2022-09-26T10:07:49.883Z,44.70
2022-09-26T10:10:55.686Z,43.26
2022-09-26T10:13:46.929Z,45.74
2022-09-26T10:16:35.017Z,43.67
2022-09-26T10:19:12.374Z,42.76
2022-09-26T10:21:53.884Z,40.19
2022-09-26T10:24:40.961Z,45.26
2022-09-26T10:27:29.908Z,48.53
2022-09-26T10:30:01.910Z,47.65
2022-09-26T10:32:47.229Z,50.59
2022-09-26T10:35:48.441Z,48.98
2022-09-26T10:38:27.422Z,50.97
2022-09-26T10:41:07.028Z,51.47
2022-09-26T10:43:40.646Z,53.69
2022-09-26T10:46:24.165Z,52.10
2022-09-26T10:49:36.287Z,53.69
2022-09-26T10:52:19.873Z,60.12
2022-09-26T10:54:59.198Z,57.75
2022-09-26T10:57:39.969Z,54.87
2022-09-26T11:00:13.816Z,50.99
2022-09-26T11:02:52.023Z,49.44
2022-09-26T11:05:39.711Z,48.48
2022-09-26T11:08:16.200Z,49.95
2022-09-26T11:10:58.031Z,50.30
2022-09-26T11:13:50.110Z,47.81
2022-09-26T11:16:22.421Z,45.06
2022-09-26T11:19:11.704Z,43.46
2022-09-26T11:21:52.749Z,40.50
2022-09-26T11:24:37.619Z,40.67
2022-09-26T11:27:31.271Z,38.77
2022-09-26T11:30:09.153Z,38.29
2022-09-26T11:32:52.380Z,39.03
2022-09-26T11:36:39.686Z,40.56
2022-09-26T11:39:40.831Z,43.74
2022-09-26T11:42:29.493Z,46.06
2022-09-26T11:45:04.639Z,46.74
2022-09-26T11:48:23.347Z,48.70
2022-09-26T11:51:24.593Z,50.50
2022-09-26T11:54:34.562Z,52.48
2022-09-26T11:57:23.014Z,53.12
2022-09-26T12:00:13.325Z,50.11
2022-09-26T12:03:20.711Z,44.14
2022-09-26T12:06:01.781Z,40.00
2022-09-26T12:09:01.132Z,38.63
2022-09-26T12:11:47.165Z,37.61
2022-09-26T12:14:39.897Z,39.20
2022-09-26T12:17:25.457Z,40.59
2022-09-26T12:20:06.906Z,43.39
2022-09-26T12:22:48.726Z,44.13
2022-09-26T12:25:46.192Z,44.13
2022-09-26T12:28:54.766Z,41.96
2022-09-26T12:31:48.379Z,42.73
2022-09-26T12:34:43.568Z,41.38
2022-09-26T12:37:44.454Z,46.06
2022-09-26T12:40:42.975Z,44.12
2022-09-26T12:44:03.798Z,44.42
2022-09-26T12:47:00.249Z,45.74
2022-09-26T12:50:00.922Z,44.32
2022-09-26T12:52:54.387Z,48.10
2022-09-26T12:55:40.206Z,47.61
2022-09-26T12:58:33.119Z,48.48
2022-09-26T13:01:28.259Z,48.90
2022-09-26T13:04:45.695Z,49.38
2022-09-26T13:07:51.451Z,49.31
2022-09-26T13:10:41.039Z,50.93
2022-09-26T13:13:56.168Z,53.64
2022-09-26T13:16:49.220Z,55.93
2022-09-26T13:19:28.643Z,60.70
2022-09-26T13:22:04.451Z,63.46
2022-09-26T13:24:51.025Z,61.92
2022-09-26T13:27:30.139Z,59.91
2022-09-26T13:30:08.265Z,65.24
2022-09-26T13:32:57.427Z,76.77
2022-09-26T13:35:30.152Z,76.81
2022-09-26T13:38:21.492Z,83.47
2022-09-26T13:41:06.349Z,87.41
2022-09-26T13:44:00.632Z,84.65
2022-09-26T13:46:45.630Z,84.37
2022-09-26T13:49:37.613Z,74.22
2022-09-26T13:52:30.444Z,67.36
2022-09-26T13:55:05.155Z,60.08
2022-09-26T13:57:50.072Z,57.25
2022-09-26T14:00:57.739Z,61.04
2022-09-26T14:03:46.015Z,60.93
2022-09-26T14:06:33.809Z,62.77
2022-09-26T14:09:23.884Z,63.25
2022-09-26T14:12:35.364Z,65.62
2022-09-26T14:15:25.924Z,62.00
2022-09-26T14:18:18.924Z,64.15
2022-09-26T14:21:07.083Z,64.30
2022-09-26T14:23:45.353Z,66.37
2022-09-26T14:26:21.113Z,65.88
2022-09-26T14:28:57.469Z,69.05
2022-09-26T14:32:02.292Z,69.38
2022-09-26T14:34:41.893Z,69.01
2022-09-26T14:37:34.372Z,68.90
2022-09-26T14:40:24.613Z,67.10
2022-09-26T14:42:59.824Z,65.47
2022-09-26T14:45:49.008Z,64.98
2022-09-26T14:48:36.340Z,63.38
2022-09-26T14:51:21.832Z,63.65
2022-09-26T14:54:00.756Z,65.29
2022-09-26T14:56:46.724Z,65.85
2022-09-26T14:59:45.913Z,65.59
2022-09-26T15:02:31.375Z,65.56
2022-09-26T15:05:28.185Z,66.25
2022-09-26T15:08:01.078Z,65.10
2022-09-26T15:10:42.873Z,70.22
2022-09-26T15:13:34.039Z,67.93
2022-09-26T15:16:26.533Z,66.15
2022-09-26T15:19:03.748Z,66.44
2022-09-26T15:21:40.371Z,64.05
2022-09-26T15:24:28.015Z,60.97
2022-09-26T15:27:03.823Z,61.22
2022-09-26T15:29:37.493Z,60.69
2022-09-26T15:32:07.588Z,57.48
2022-09-26T15:34:41.736Z,58.98
2022-09-26T15:37:20.362Z,60.08
2022-09-26T15:39:50.396Z,60.22
2022-09-26T15:42:42.610Z,59.16
2022-09-26T15:45:33.574Z,60.56
2022-09-26T15:48:07.248Z,63.43
2022-09-26T15:50:44.746Z,60.15
2022-09-26T15:53:28.086Z,60.08
2022-09-26T15:56:03.680Z,62.58
2022-09-26T15:58:44.133Z,62.70
2022-09-26T16:01:22.240Z,64.05
2022-09-26T16:03:59.902Z,67.44
2022-09-26T16:06:38.877Z,68.74
2022-09-26T16:09:19.633Z,69.75
2022-09-26T16:11:54.472Z,70.59
2022-09-26T16:14:31.869Z,73.01
2022-09-26T16:17:16.200Z,76.07
2022-09-26T16:19:49.294Z,78.11
2022-09-26T16:22:49.194Z,77.80
2022-09-26T16:25:53.694Z,81.10
2022-09-26T16:28:44.888Z,85.05
2022-09-26T16:31:28.799Z,90.81
2022-09-26T16:34:02.934Z,87.18
2022-09-26T16:36:35.986Z,86.98
2022-09-26T16:39:11.412Z,91.28
2022-09-26T16:42:02.629Z,89.50
2022-09-26T16:44:37.367Z,88.94
2022-09-26T16:47:29.893Z,92.51
2022-09-26T16:50:21.854Z,91.51
2022-09-26T16:52:52.161Z,95.50
2022-09-26T16:55:23.014Z,95.53
2022-09-26T16:57:58.212Z,97.52
2022-09-26T17:00:45.341Z,98.09
2022-09-26T17:03:24.890Z,100.00
2022-09-26T17:06:00.282Z,100.00
2022-09-26T17:08:31.472Z,100.00
2022-09-26T17:11:05.974Z,100.00
2022-09-26T17:13:40.754Z,99.19
2022-09-26T17:16:11.214Z,100.00
2022-09-26T17:18:44.420Z,100.00
2022-09-26T17:21:16.966Z,100.00
2022-09-26T17:23:49.069Z,100.00
2022-09-26T17:26:25.272Z,100.00
2022-09-26T17:28:59.315Z,100.00
2022-09-26T17:31:32.209Z,100.00
2022-09-26T17:34:02.413Z,100.00
2022-09-26T17:36:34.956Z,100.00
2022-09-26T17:39:07.997Z,100.00
2022-09-26T17:41:38.137Z,100.00
2022-09-26T17:44:08.269Z,100.00
2022-09-26T17:46:39.502Z,100.00
2022-09-26T17:49:16.882Z,100.00
2022-09-26T17:51:49.570Z,100.00
2022-09-26T17:54:24.085Z,100.00
2022-09-26T17:56:54.076Z,100.00
2022-09-26T17:59:28.717Z,100.00
2022-09-26T18:02:03.994Z,100.00
2022-09-26T18:04:34.733Z,100.00
2022-09-26T18:07:07.396Z,100.00
2022-09-26T18:09:39.458Z,100.00
2022-09-26T18:12:16.543Z,100.00
2022-09-26T18:14:47.042Z,100.00
2022-09-26T18:17:18.941Z,100.00
2022-09-26T18:19:50.681Z,100.00
2022-09-26T18:22:33.483Z,100.00
2022-09-26T18:25:09.436Z,100.00
2022-09-26T18:27:39.675Z,100.00
2022-09-26T18:30:15.906Z,100.00
2022-09-26T18:32:51.151Z,100.00
2022-09-26T18:35:25.541Z,100.00
2022-09-26T18:37:59.772Z,100.00
2022-09-26T18:40:32.255Z,100.00
2022-09-26T18:43:03.358Z,100.00
2022-09-26T18:45:37.232Z,100.00
2022-09-26T18:48:09.592Z,100.00
2022-09-26T18:50:42.991Z,100.00
2022-09-26T18:53:20.104Z,100.00
2022-09-26T18:56:03.476Z,100.00
2022-09-26T18:58:34.048Z,100.00
2022-09-26T19:01:08.571Z,100.00
2022-09-26T19:03:41.969Z,100.00
2022-09-26T19:06:18.494Z,100.00
2022-09-26T19:08:54.416Z,100.00
2022-09-26T19:11:27.546Z,100.00
2022-09-26T19:14:00.803Z,100.00
2022-09-26T19:16:30.838Z,100.00
2022-09-26T19:19:01.728Z,100.00
2022-09-26T19:21:37.819Z,100.00
2022-09-26T19:24:22.763Z,100.00
2022-09-26T19:26:57.110Z,100.00
2022-09-26T19:29:36.872Z,100.00
2022-09-26T19:32:09.871Z,100.00
2022-09-26T19:34:40.844Z,100.00
2022-09-26T19:37:14.115Z,100.00
2022-09-26T19:39:46.704Z,100.00
2022-09-26T19:42:16.956Z,100.00
2022-09-26T19:44:47.347Z,100.00
2022-09-26T19:47:20.583Z,100.00
2022-09-26T19:49:53.585Z,100.00
2022-09-26T19:52:25.030Z,100.00
2022-09-26T19:54:57.570Z,100.00
2022-09-26T19:57:27.536Z,100.00
2022-09-26T19:59:57.515Z,100.00
2022-09-26T20:02:35.457Z,100.00
2022-09-26T20:05:16.238Z,100.00
2022-09-26T20:07:46.234Z,100.00
2022-09-26T20:10:22.681Z,100.00
2022-09-26T20:12:52.625Z,100.00
2022-09-26T20:15:23.016Z,100.00
2022-09-26T20:17:55.150Z,100.00
2022-09-26T20:20:27.792Z,100.00
2022-09-26T20:22:59.214Z,100.00
2022-09-26T20:25:35.346Z,100.00
2022-09-26T20:28:05.547Z,100.00
2022-09-26T20:30:48.039Z,100.00
2022-09-26T20:33:18.186Z,100.00
2022-09-26T20:35:50.761Z,100.00
2022-09-26T20:38:33.262Z,100.00
2022-09-26T20:41:13.390Z,100.00
2022-09-26T20:43:47.274Z,100.00
2022-09-26T20:46:18.160Z,100.00
2022-09-26T20:48:51.409Z,100.00
2022-09-26T20:51:26.373Z,100.00
2022-09-26T20:53:57.925Z,100.00
2022-09-26T20:56:31.332Z,100.00
2022-09-26T20:59:01.384Z,100.00
2022-09-26T21:01:31.674Z,100.00
2022-09-26T21:04:03.393Z,100.00
2022-09-26T21:06:37.189Z,100.00
2022-09-26T21:09:07.363Z,100.00
2022-09-26T21:11:41.720Z,100.00
2022-09-26T21:14:11.691Z,100.00
2022-09-26T21:16:48.146Z,100.00
2022-09-26T21:19:27.692Z,100.00
2022-09-26T21:22:06.897Z,100.00
2022-09-26T21:24:45.701Z,100.00
2022-09-26T21:27:19.021Z,100.00
2022-09-26T21:29:49.125Z,100.00
2022-09-26T21:32:25.214Z,100.00
2022-09-26T21:35:04.533Z,100.00
2022-09-26T21:37:34.833Z,100.00
2022-09-26T21:40:05.742Z,100.00
2022-09-26T21:42:39.166Z,100.00
2022-09-26T21:45:14.135Z,100.00
2022-09-26T21:47:44.205Z,100.00
2022-09-26T21:50:14.879Z,100.00
2022-09-26T21:52:51.693Z,100.00
2022-09-26T21:55:29.864Z,100.00
2022-09-26T21:58:13.040Z,100.00
2022-09-26T22:00:43.336Z,100.00
2022-09-26T22:03:13.375Z,100.00
2022-09-26T22:05:43.448Z,100.00
2022-09-26T22:08:13.531Z,100.00
2022-09-26T22:10:43.532Z,100.00
2022-09-26T22:13:16.149Z,100.00
2022-09-26T22:15:46.108Z,100.00
2022-09-26T22:18:16.109Z,100.00
2022-09-26T22:20:46.078Z,100.00
2022-09-26T22:23:16.121Z,100.00
2022-09-26T22:25:52.379Z,100.00
2022-09-26T22:28:25.285Z,100.00
2022-09-26T22:30:55.365Z,100.00
2022-09-26T22:33:26.288Z,100.00
2022-09-26T22:35:56.528Z,100.00
2022-09-26T22:38:26.615Z,100.00
2022-09-26T22:41:00.657Z,100.00
2022-09-26T22:43:35.242Z,100.00
2022-09-26T22:46:07.708Z,100.00
2022-09-26T22:48:41.305Z,100.00
2022-09-26T22:51:12.183Z,100.00
2022-09-26T22:53:44.440Z,100.00
2022-09-26T22:56:18.126Z,100.00
2022-09-26T22:58:53.039Z,100.00
2022-09-26T23:01:27.277Z,100.00
2022-09-26T23:03:57.831Z,100.00
2022-09-26T23:06:28.830Z,100.00
2022-09-26T23:08:59.536Z,100.00
2022-09-26T23:11:31.746Z,100.00
2022-09-26T23:14:04.317Z,100.00
2022-09-26T23:16:34.764Z,100.00
2022-09-26T23:19:04.811Z,100.00
2022-09-26T23:21:34.766Z,100.00
2022-09-26T23:24:04.960Z,100.00
2022-09-26T23:26:35.066Z,100.00
2022-09-26T23:29:07.590Z,100.00
2022-09-26T23:31:37.722Z,100.00
2022-09-26T23:34:08.139Z,100.00
2022-09-26T23:36:38.093Z,100.00
2022-09-26T23:39:08.287Z,100.00
2022-09-26T23:41:38.824Z,100.00
2022-09-26T23:44:11.415Z,100.00
2022-09-26T23:46:41.698Z,100.00
2022-09-26T23:49:11.705Z,100.00
2022-09-26T23:51:42.443Z,100.00
2022-09-26T23:54:12.487Z,100.00
2022-09-26T23:56:43.876Z,100.00
2022-09-26T23:59:16.528Z,100.00
